sensor_id;sensor_type;location;lat;lon;timestamp;temperature;humidity
15450;DHT22;7826;49.784;9.934;2022-11-15T00:00:54;7.20;1.00
15450;DHT22;7826;49.784;9.934;2022-11-15T00:03:26;7.20;1.00
15450;DHT22;7826;49.784;9.934;2022-11-15T00:05:53;7.30;1.00
15450;DHT22;7826;49.784;9.934;2022-11-15T00:08:19;7.30;1.00
15450;DHT22;7826;49.784;9.934;2022-11-15T00:10:59;7.30;1.00
15450;DHT22;7826;49.784;9.934;2022-11-15T00:13:26;7.30;1.00
15450;DHT22;7826;49.784;9.934;2022-11-15T00:15:52;7.30;1.00
15450;DHT22;7826;49.784;9.934;2022-11-15T00:18:19;7.30;1.00
15450;DHT22;7826;49.784;9.934;2022-11-15T00:20:45;7.30;1.00
15450;DHT22;7826;49.784;9.934;2022-11-15T00:23:11;7.30;1.00
15450;DHT22;7826;49.784;9.934;2022-11-15T00:25:38;7.30;1.00
15450;DHT22;7826;49.784;9.934;2022-11-15T00:28:04;7.30;1.00
15450;DHT22;7826;49.784;9.934;2022-11-15T00:30:31;7.30;1.00
15450;DHT22;7826;49.784;9.934;2022-11-15T00:33:02;7.30;1.00
15450;DHT22;7826;49.784;9.934;2022-11-15T00:35:28;7.30;1.00
15450;DHT22;7826;49.784;9.934;2022-11-15T00:37:54;7.30;1.00
15450;DHT22;7826;49.784;9.934;2022-11-15T00:40:20;7.30;1.00
15450;DHT22;7826;49.784;9.934;2022-11-15T00:42:47;7.40;1.00
15450;DHT22;7826;49.784;9.934;2022-11-15T00:45:13;7.40;1.00
15450;DHT22;7826;49.784;9.934;2022-11-15T00:47:39;7.40;1.00
15450;DHT22;7826;49.784;9.934;2022-11-15T00:50:06;7.40;1.00
15450;DHT22;7826;49.784;9.934;2022-11-15T00:52:32;7.40;1.00
15450;DHT22;7826;49.784;9.934;2022-11-15T00:54:59;7.40;1.00
15450;DHT22;7826;49.784;9.934;2022-11-15T00:57:25;7.40;1.00
15450;DHT22;7826;49.784;9.934;2022-11-15T00:59:51;7.40;1.00
15450;DHT22;7826;49.784;9.934;2022-11-15T01:02:18;7.40;1.00
15450;DHT22;7826;49.784;9.934;2022-11-15T01:04:44;7.40;1.00
15450;DHT22;7826;49.784;9.934;2022-11-15T01:07:10;7.40;1.00
15450;DHT22;7826;49.784;9.934;2022-11-15T01:09:37;7.40;1.00
15450;DHT22;7826;49.784;9.934;2022-11-15T01:12:03;7.40;1.00
15450;DHT22;7826;49.784;9.934;2022-11-15T01:14:30;7.40;1.00
15450;DHT22;7826;49.784;9.934;2022-11-15T01:16:56;7.40;1.00
15450;DHT22;7826;49.784;9.934;2022-11-15T01:19:22;7.30;1.00
15450;DHT22;7826;49.784;9.934;2022-11-15T01:21:49;7.30;1.00
15450;DHT22;7826;49.784;9.934;2022-11-15T01:24:16;7.20;1.00
15450;DHT22;7826;49.784;9.934;2022-11-15T01:26:42;7.20;1.00
15450;DHT22;7826;49.784;9.934;2022-11-15T01:29:08;7.20;1.00
15450;DHT22;7826;49.784;9.934;2022-11-15T01:31:34;7.10;1.00
15450;DHT22;7826;49.784;9.934;2022-11-15T01:34:01;7.20;1.00
15450;DHT22;7826;49.784;9.934;2022-11-15T01:36:27;7.20;1.00
15450;DHT22;7826;49.784;9.934;2022-11-15T01:38:54;7.20;1.00
15450;DHT22;7826;49.784;9.934;2022-11-15T01:41:25;7.20;1.00
15450;DHT22;7826;49.784;9.934;2022-11-15T01:43:54;7.20;1.00
15450;DHT22;7826;49.784;9.934;2022-11-15T01:48:53;7.20;1.00
15450;DHT22;7826;49.784;9.934;2022-11-15T01:51:23;7.20;1.00
15450;DHT22;7826;49.784;9.934;2022-11-15T01:53:55;7.20;1.00
15450;DHT22;7826;49.784;9.934;2022-11-15T01:56:25;7.20;20.80
15450;DHT22;7826;49.784;9.934;2022-11-15T01:58:55;7.30;5.50
15450;DHT22;7826;49.784;9.934;2022-11-15T02:01:24;7.30;1.00
15450;DHT22;7826;49.784;9.934;2022-11-15T02:03:56;7.20;1.00
15450;DHT22;7826;49.784;9.934;2022-11-15T02:06:24;7.20;1.00
15450;DHT22;7826;49.784;9.934;2022-11-15T02:08:51;7.20;1.00
15450;DHT22;7826;49.784;9.934;2022-11-15T02:11:17;7.20;1.00
15450;DHT22;7826;49.784;9.934;2022-11-15T02:13:44;7.20;1.00
15450;DHT22;7826;49.784;9.934;2022-11-15T02:27:21;7.20;21.40
15450;DHT22;7826;49.784;9.934;2022-11-15T02:32:45;7.10;42.20
15450;DHT22;7826;49.784;9.934;2022-11-15T02:38:51;7.10;95.20
15450;DHT22;7826;49.784;9.934;2022-11-15T02:41:39;7.00;95.50
15450;DHT22;7826;49.784;9.934;2022-11-15T02:43:49;7.00;98.70
15450;DHT22;7826;49.784;9.934;2022-11-15T02:49:18;6.90;99.90
15450;DHT22;7826;49.784;9.934;2022-11-15T02:51:47;6.80;99.90
15450;DHT22;7826;49.784;9.934;2022-11-15T02:54:18;6.80;99.90
15450;DHT22;7826;49.784;9.934;2022-11-15T02:56:46;6.70;99.90
15450;DHT22;7826;49.784;9.934;2022-11-15T02:59:47;6.70;99.90
15450;DHT22;7826;49.784;9.934;2022-11-15T03:05:41;6.60;99.90
15450;DHT22;7826;49.784;9.934;2022-11-15T03:10:36;6.50;99.90
15450;DHT22;7826;49.784;9.934;2022-11-15T03:13:36;6.50;99.90
15450;DHT22;7826;49.784;9.934;2022-11-15T03:18:49;6.40;99.90
15450;DHT22;7826;49.784;9.934;2022-11-15T03:21:20;6.40;99.90
15450;DHT22;7826;49.784;9.934;2022-11-15T03:23:48;6.40;1.00
15450;DHT22;7826;49.784;9.934;2022-11-15T03:26:18;6.30;1.00
15450;DHT22;7826;49.784;9.934;2022-11-15T03:29:04;6.30;1.00
15450;DHT22;7826;49.784;9.934;2022-11-15T03:31:36;6.30;1.00
15450;DHT22;7826;49.784;9.934;2022-11-15T03:36:56;6.30;1.00
15450;DHT22;7826;49.784;9.934;2022-11-15T03:39:23;6.30;1.00
15450;DHT22;7826;49.784;9.934;2022-11-15T03:42:20;6.20;1.00
15450;DHT22;7826;49.784;9.934;2022-11-15T03:47:34;6.20;1.00
15450;DHT22;7826;49.784;9.934;2022-11-15T03:50:07;6.10;1.00
15450;DHT22;7826;49.784;9.934;2022-11-15T03:52:34;6.10;1.00
15450;DHT22;7826;49.784;9.934;2022-11-15T03:55:03;6.10;1.00
15450;DHT22;7826;49.784;9.934;2022-11-15T03:57:29;6.00;1.00
15450;DHT22;7826;49.784;9.934;2022-11-15T03:59:56;6.00;1.00
15450;DHT22;7826;49.784;9.934;2022-11-15T04:02:22;6.00;1.00
15450;DHT22;7826;49.784;9.934;2022-11-15T04:04:48;6.00;1.00
15450;DHT22;7826;49.784;9.934;2022-11-15T04:07:15;6.00;1.00
15450;DHT22;7826;49.784;9.934;2022-11-15T04:09:41;5.90;1.00
15450;DHT22;7826;49.784;9.934;2022-11-15T04:12:26;5.90;1.00
15450;DHT22;7826;49.784;9.934;2022-11-15T04:15:09;5.90;1.00
15450;DHT22;7826;49.784;9.934;2022-11-15T04:17:47;5.90;1.00
15450;DHT22;7826;49.784;9.934;2022-11-15T04:20:21;5.90;1.00
15450;DHT22;7826;49.784;9.934;2022-11-15T04:23:21;5.90;1.00
15450;DHT22;7826;49.784;9.934;2022-11-15T04:28:34;5.80;1.00
15450;DHT22;7826;49.784;9.934;2022-11-15T04:31:00;5.80;1.00
15450;DHT22;7826;49.784;9.934;2022-11-15T04:33:26;5.70;1.00
15450;DHT22;7826;49.784;9.934;2022-11-15T04:35:53;5.70;1.00
15450;DHT22;7826;49.784;9.934;2022-11-15T04:38:37;5.70;1.00
15450;DHT22;7826;49.784;9.934;2022-11-15T04:41:04;5.60;1.00
15450;DHT22;7826;49.784;9.934;2022-11-15T04:43:30;5.60;1.00
15450;DHT22;7826;49.784;9.934;2022-11-15T04:45:56;5.60;1.00
15450;DHT22;7826;49.784;9.934;2022-11-15T04:48:23;5.50;1.00
15450;DHT22;7826;49.784;9.934;2022-11-15T04:50:49;5.50;1.00
15450;DHT22;7826;49.784;9.934;2022-11-15T04:53:16;5.50;1.00
15450;DHT22;7826;49.784;9.934;2022-11-15T04:55:45;5.40;1.00
15450;DHT22;7826;49.784;9.934;2022-11-15T04:58:11;5.50;1.00
15450;DHT22;7826;49.784;9.934;2022-11-15T05:00:37;5.50;1.00
15450;DHT22;7826;49.784;9.934;2022-11-15T05:03:05;5.50;1.00
15450;DHT22;7826;49.784;9.934;2022-11-15T05:05:50;5.40;1.00
15450;DHT22;7826;49.784;9.934;2022-11-15T05:08:17;5.40;1.00
15450;DHT22;7826;49.784;9.934;2022-11-15T05:10:43;5.40;1.00
15450;DHT22;7826;49.784;9.934;2022-11-15T05:13:10;5.40;1.00
15450;DHT22;7826;49.784;9.934;2022-11-15T05:15:36;5.30;1.00
15450;DHT22;7826;49.784;9.934;2022-11-15T05:18:02;5.30;1.00
15450;DHT22;7826;49.784;9.934;2022-11-15T05:20:29;5.30;1.00
15450;DHT22;7826;49.784;9.934;2022-11-15T05:22:55;5.20;1.00
15450;DHT22;7826;49.784;9.934;2022-11-15T05:25:22;5.20;1.00
15450;DHT22;7826;49.784;9.934;2022-11-15T05:27:49;5.20;1.00
15450;DHT22;7826;49.784;9.934;2022-11-15T05:30:15;5.20;1.00
15450;DHT22;7826;49.784;9.934;2022-11-15T05:32:43;5.10;1.00
15450;DHT22;7826;49.784;9.934;2022-11-15T05:35:13;5.10;1.00
15450;DHT22;7826;49.784;9.934;2022-11-15T05:37:43;5.10;1.00
15450;DHT22;7826;49.784;9.934;2022-11-15T05:40:10;5.10;1.00
15450;DHT22;7826;49.784;9.934;2022-11-15T05:42:36;5.10;1.00
15450;DHT22;7826;49.784;9.934;2022-11-15T05:45:05;5.10;1.00
15450;DHT22;7826;49.784;9.934;2022-11-15T05:47:34;5.10;1.00
15450;DHT22;7826;49.784;9.934;2022-11-15T05:50:02;5.00;1.00
15450;DHT22;7826;49.784;9.934;2022-11-15T05:52:31;5.00;1.00
15450;DHT22;7826;49.784;9.934;2022-11-15T05:54:59;5.00;1.00
15450;DHT22;7826;49.784;9.934;2022-11-15T05:57:25;5.00;1.00
15450;DHT22;7826;49.784;9.934;2022-11-15T05:59:52;5.00;1.00
15450;DHT22;7826;49.784;9.934;2022-11-15T06:02:19;5.00;1.00
15450;DHT22;7826;49.784;9.934;2022-11-15T06:04:46;4.90;1.00
15450;DHT22;7826;49.784;9.934;2022-11-15T06:07:12;4.90;1.00
15450;DHT22;7826;49.784;9.934;2022-11-15T06:09:39;4.90;1.00
15450;DHT22;7826;49.784;9.934;2022-11-15T06:12:06;4.90;1.00
15450;DHT22;7826;49.784;9.934;2022-11-15T06:14:32;4.80;1.00
15450;DHT22;7826;49.784;9.934;2022-11-15T06:16:58;4.80;1.00
15450;DHT22;7826;49.784;9.934;2022-11-15T06:19:24;4.80;1.00
15450;DHT22;7826;49.784;9.934;2022-11-15T06:21:54;4.80;1.00
15450;DHT22;7826;49.784;9.934;2022-11-15T06:24:20;4.90;1.00
15450;DHT22;7826;49.784;9.934;2022-11-15T06:26:47;4.80;1.00
15450;DHT22;7826;49.784;9.934;2022-11-15T06:29:13;4.80;1.00
15450;DHT22;7826;49.784;9.934;2022-11-15T06:31:39;4.90;1.00
15450;DHT22;7826;49.784;9.934;2022-11-15T06:34:06;4.90;1.00
15450;DHT22;7826;49.784;9.934;2022-11-15T06:36:35;5.00;1.00
15450;DHT22;7826;49.784;9.934;2022-11-15T06:39:05;5.00;1.00
15450;DHT22;7826;49.784;9.934;2022-11-15T06:41:34;5.10;1.00
15450;DHT22;7826;49.784;9.934;2022-11-15T06:44:02;5.10;1.00
15450;DHT22;7826;49.784;9.934;2022-11-15T06:46:29;5.20;1.00
15450;DHT22;7826;49.784;9.934;2022-11-15T06:48:55;5.30;1.00
15450;DHT22;7826;49.784;9.934;2022-11-15T06:51:21;5.30;1.00
15450;DHT22;7826;49.784;9.934;2022-11-15T06:53:48;5.30;1.00
15450;DHT22;7826;49.784;9.934;2022-11-15T06:56:14;5.40;1.00
15450;DHT22;7826;49.784;9.934;2022-11-15T06:58:41;5.30;1.00
15450;DHT22;7826;49.784;9.934;2022-11-15T07:01:10;5.40;1.00
15450;DHT22;7826;49.784;9.934;2022-11-15T07:03:41;5.40;99.90
15450;DHT22;7826;49.784;9.934;2022-11-15T07:06:09;5.40;1.00
15450;DHT22;7826;49.784;9.934;2022-11-15T07:08:36;5.50;1.00
15450;DHT22;7826;49.784;9.934;2022-11-15T07:11:05;5.50;99.90
15450;DHT22;7826;49.784;9.934;2022-11-15T07:13:33;5.60;99.90
15450;DHT22;7826;49.784;9.934;2022-11-15T07:16:08;5.60;99.90
15450;DHT22;7826;49.784;9.934;2022-11-15T07:18:40;5.60;99.90
15450;DHT22;7826;49.784;9.934;2022-11-15T07:21:09;5.70;99.90
15450;DHT22;7826;49.784;9.934;2022-11-15T07:23:37;5.80;1.00
15450;DHT22;7826;49.784;9.934;2022-11-15T07:26:05;6.00;1.00
15450;DHT22;7826;49.784;9.934;2022-11-15T07:28:32;6.10;99.90
15450;DHT22;7826;49.784;9.934;2022-11-15T07:31:06;6.20;99.90
15450;DHT22;7826;49.784;9.934;2022-11-15T07:33:33;6.20;28.10
15450;DHT22;7826;49.784;9.934;2022-11-15T07:36:01;6.20;99.00
15450;DHT22;7826;49.784;9.934;2022-11-15T07:38:28;6.20;99.90
15450;DHT22;7826;49.784;9.934;2022-11-15T07:40:59;6.40;99.90
15450;DHT22;7826;49.784;9.934;2022-11-15T07:43:26;6.50;99.90
15450;DHT22;7826;49.784;9.934;2022-11-15T07:45:53;6.70;62.50
15450;DHT22;7826;49.784;9.934;2022-11-15T07:48:20;6.80;1.00
15450;DHT22;7826;49.784;9.934;2022-11-15T07:50:46;6.90;1.00
15450;DHT22;7826;49.784;9.934;2022-11-15T07:53:12;6.80;1.00
15450;DHT22;7826;49.784;9.934;2022-11-15T07:55:40;7.10;99.90
15450;DHT22;7826;49.784;9.934;2022-11-15T07:58:10;7.20;99.90
15450;DHT22;7826;49.784;9.934;2022-11-15T08:00:37;7.30;99.90
15450;DHT22;7826;49.784;9.934;2022-11-15T08:03:05;7.40;52.50
15450;DHT22;7826;49.784;9.934;2022-11-15T08:05:32;7.60;51.60
15450;DHT22;7826;49.784;9.934;2022-11-15T08:07:58;7.80;1.00
15450;DHT22;7826;49.784;9.934;2022-11-15T08:10:25;8.00;1.00
15450;DHT22;7826;49.784;9.934;2022-11-15T08:13:04;8.10;99.90
15450;DHT22;7826;49.784;9.934;2022-11-15T08:15:31;8.30;1.00
15450;DHT22;7826;49.784;9.934;2022-11-15T08:17:59;8.50;1.00
15450;DHT22;7826;49.784;9.934;2022-11-15T08:20:27;8.70;1.00
15450;DHT22;7826;49.784;9.934;2022-11-15T08:22:57;9.00;1.00
15450;DHT22;7826;49.784;9.934;2022-11-15T08:25:25;9.20;99.90
15450;DHT22;7826;49.784;9.934;2022-11-15T08:27:53;9.40;99.90
15450;DHT22;7826;49.784;9.934;2022-11-15T08:30:21;9.60;99.90
15450;DHT22;7826;49.784;9.934;2022-11-15T08:32:48;9.90;99.90
15450;DHT22;7826;49.784;9.934;2022-11-15T08:35:15;10.10;1.00
15450;DHT22;7826;49.784;9.934;2022-11-15T08:37:42;10.60;1.00
15450;DHT22;7826;49.784;9.934;2022-11-15T08:40:09;11.60;1.00
15450;DHT22;7826;49.784;9.934;2022-11-15T08:42:36;12.70;99.90
15450;DHT22;7826;49.784;9.934;2022-11-15T08:45:03;13.50;39.90
15450;DHT22;7826;49.784;9.934;2022-11-15T08:47:30;14.70;61.20
15450;DHT22;7826;49.784;9.934;2022-11-15T08:49:56;15.40;1.00
15450;DHT22;7826;49.784;9.934;2022-11-15T08:52:22;16.10;94.60
15450;DHT22;7826;49.784;9.934;2022-11-15T08:54:49;16.70;1.00
15450;DHT22;7826;49.784;9.934;2022-11-15T08:57:15;17.10;99.90
15450;DHT22;7826;49.784;9.934;2022-11-15T08:59:42;17.50;99.90
15450;DHT22;7826;49.784;9.934;2022-11-15T09:02:13;18.00;99.90
15450;DHT22;7826;49.784;9.934;2022-11-15T09:04:43;18.50;38.10
15450;DHT22;7826;49.784;9.934;2022-11-15T09:07:10;19.40;1.00
15450;DHT22;7826;49.784;9.934;2022-11-15T09:09:37;19.00;1.00
15450;DHT22;7826;49.784;9.934;2022-11-15T09:12:05;18.20;1.00
15450;DHT22;7826;49.784;9.934;2022-11-15T09:14:32;17.50;1.00
15450;DHT22;7826;49.784;9.934;2022-11-15T09:16:58;17.40;1.00
15450;DHT22;7826;49.784;9.934;2022-11-15T09:19:25;17.00;1.00
15450;DHT22;7826;49.784;9.934;2022-11-15T09:21:52;16.00;1.00
15450;DHT22;7826;49.784;9.934;2022-11-15T09:24:18;15.00;1.00
15450;DHT22;7826;49.784;9.934;2022-11-15T09:26:45;14.10;13.50
15450;DHT22;7826;49.784;9.934;2022-11-15T09:29:11;13.40;99.90
15450;DHT22;7826;49.784;9.934;2022-11-15T09:31:37;12.80;99.90
15450;DHT22;7826;49.784;9.934;2022-11-15T09:34:05;12.40;1.00
15450;DHT22;7826;49.784;9.934;2022-11-15T09:36:31;12.10;1.00
15450;DHT22;7826;49.784;9.934;2022-11-15T09:38:58;11.90;60.00
15450;DHT22;7826;49.784;9.934;2022-11-15T09:47:08;11.60;1.00
15450;DHT22;7826;49.784;9.934;2022-11-15T09:49:36;11.60;1.00
15450;DHT22;7826;49.784;9.934;2022-11-15T09:52:03;11.60;99.90
15450;DHT22;7826;49.784;9.934;2022-11-15T09:54:36;11.60;63.10
15450;DHT22;7826;49.784;9.934;2022-11-15T09:57:11;11.60;28.00
15450;DHT22;7826;49.784;9.934;2022-11-15T10:05:22;11.60;11.90
15450;DHT22;7826;49.784;9.934;2022-11-15T10:07:55;11.60;7.00
15450;DHT22;7826;49.784;9.934;2022-11-15T10:10:39;11.70;6.20
15450;DHT22;7826;49.784;9.934;2022-11-15T10:13:23;11.90;10.50
15450;DHT22;7826;49.784;9.934;2022-11-15T10:15:51;12.10;1.40
15450;DHT22;7826;49.784;9.934;2022-11-15T10:18:24;12.20;1.00
15450;DHT22;7826;49.784;9.934;2022-11-15T10:21:02;12.30;1.00
15450;DHT22;7826;49.784;9.934;2022-11-15T10:23:35;12.50;1.00
15450;DHT22;7826;49.784;9.934;2022-11-15T10:26:08;12.60;1.00
15450;DHT22;7826;49.784;9.934;2022-11-15T10:28:36;12.70;1.00
15450;DHT22;7826;49.784;9.934;2022-11-15T10:31:11;12.80;1.00
15450;DHT22;7826;49.784;9.934;2022-11-15T10:33:46;13.10;26.60
15450;DHT22;7826;49.784;9.934;2022-11-15T10:41:17;13.20;99.90
15450;DHT22;7826;49.784;9.934;2022-11-15T10:43:45;13.20;8.40
15450;DHT22;7826;49.784;9.934;2022-11-15T10:48:45;13.20;99.90
15450;DHT22;7826;49.784;9.934;2022-11-15T10:51:26;13.30;99.90
15450;DHT22;7826;49.784;9.934;2022-11-15T10:53:59;13.40;99.90
15450;DHT22;7826;49.784;9.934;2022-11-15T10:56:26;13.40;99.90
15450;DHT22;7826;49.784;9.934;2022-11-15T10:58:53;13.50;99.90
15450;DHT22;7826;49.784;9.934;2022-11-15T11:01:24;13.60;99.90
15450;DHT22;7826;49.784;9.934;2022-11-15T11:04:06;13.50;99.90
15450;DHT22;7826;49.784;9.934;2022-11-15T11:06:53;13.40;99.90
15450;DHT22;7826;49.784;9.934;2022-11-15T11:09:39;13.40;99.90
15450;DHT22;7826;49.784;9.934;2022-11-15T11:12:11;13.40;99.90
15450;DHT22;7826;49.784;9.934;2022-11-15T11:14:39;13.40;99.90
15450;DHT22;7826;49.784;9.934;2022-11-15T11:22:26;13.40;99.90
15450;DHT22;7826;49.784;9.934;2022-11-15T11:25:03;13.50;99.90
15450;DHT22;7826;49.784;9.934;2022-11-15T11:33:10;13.80;99.90
15450;DHT22;7826;49.784;9.934;2022-11-15T11:36:12;13.90;99.90
15450;DHT22;7826;49.784;9.934;2022-11-15T11:39:06;14.00;99.90
15450;DHT22;7826;49.784;9.934;2022-11-15T11:41:43;14.00;99.90
15450;DHT22;7826;49.784;9.934;2022-11-15T11:55:22;14.00;99.90
15450;DHT22;7826;49.784;9.934;2022-11-15T11:58:17;13.90;99.90
15450;DHT22;7826;49.784;9.934;2022-11-15T12:06:32;14.00;99.90
15450;DHT22;7826;49.784;9.934;2022-11-15T12:09:11;14.00;99.90
15450;DHT22;7826;49.784;9.934;2022-11-15T12:11:51;14.00;99.90
15450;DHT22;7826;49.784;9.934;2022-11-15T12:14:45;14.10;99.90
15450;DHT22;7826;49.784;9.934;2022-11-15T12:17:12;14.00;99.90
15450;DHT22;7826;49.784;9.934;2022-11-15T12:19:39;14.00;99.90
15450;DHT22;7826;49.784;9.934;2022-11-15T12:22:20;14.00;99.90
15450;DHT22;7826;49.784;9.934;2022-11-15T12:24:57;13.90;99.90
15450;DHT22;7826;49.784;9.934;2022-11-15T12:27:40;13.90;99.90
15450;DHT22;7826;49.784;9.934;2022-11-15T12:30:15;13.90;99.90
15450;DHT22;7826;49.784;9.934;2022-11-15T12:32:57;14.00;99.90
15450;DHT22;7826;49.784;9.934;2022-11-15T12:35:30;14.00;99.90
15450;DHT22;7826;49.784;9.934;2022-11-15T12:37:59;14.00;99.90
15450;DHT22;7826;49.784;9.934;2022-11-15T12:40:32;14.00;99.90
15450;DHT22;7826;49.784;9.934;2022-11-15T12:45:38;14.00;99.90
15450;DHT22;7826;49.784;9.934;2022-11-15T12:53:32;14.00;99.90
15450;DHT22;7826;49.784;9.934;2022-11-15T13:04:24;14.20;99.90
15450;DHT22;7826;49.784;9.934;2022-11-15T13:07:03;14.30;99.90
15450;DHT22;7826;49.784;9.934;2022-11-15T13:14:59;14.20;99.90
15450;DHT22;7826;49.784;9.934;2022-11-15T13:22:45;14.30;99.90
15450;DHT22;7826;49.784;9.934;2022-11-15T13:27:48;14.30;99.90
15450;DHT22;7826;49.784;9.934;2022-11-15T13:30:27;14.30;99.90
15450;DHT22;7826;49.784;9.934;2022-11-15T13:32:54;14.30;99.90
15450;DHT22;7826;49.784;9.934;2022-11-15T13:35:31;14.30;99.90
15450;DHT22;7826;49.784;9.934;2022-11-15T13:38:03;14.30;99.90
15450;DHT22;7826;49.784;9.934;2022-11-15T13:40:36;14.30;99.90
15450;DHT22;7826;49.784;9.934;2022-11-15T13:48:42;14.40;99.90
15450;DHT22;7826;49.784;9.934;2022-11-15T13:51:49;14.40;99.90
15450;DHT22;7826;49.784;9.934;2022-11-15T13:57:14;14.30;99.90
15450;DHT22;7826;49.784;9.934;2022-11-15T14:02:26;14.20;99.90
15450;DHT22;7826;49.784;9.934;2022-11-15T14:04:58;14.20;99.90
15450;DHT22;7826;49.784;9.934;2022-11-15T14:07:27;14.10;99.90
15450;DHT22;7826;49.784;9.934;2022-11-15T14:09:55;14.10;99.90
15450;DHT22;7826;49.784;9.934;2022-11-15T14:12:34;14.10;99.90
15450;DHT22;7826;49.784;9.934;2022-11-15T14:17:59;14.10;99.90
15450;DHT22;7826;49.784;9.934;2022-11-15T14:20:27;14.10;99.90
15450;DHT22;7826;49.784;9.934;2022-11-15T14:22:56;14.10;99.90
15450;DHT22;7826;49.784;9.934;2022-11-15T14:25:24;14.00;99.90
15450;DHT22;7826;49.784;9.934;2022-11-15T14:30:37;14.10;99.90
15450;DHT22;7826;49.784;9.934;2022-11-15T14:33:18;14.00;99.90
15450;DHT22;7826;49.784;9.934;2022-11-15T14:35:45;14.00;99.90
15450;DHT22;7826;49.784;9.934;2022-11-15T14:38:12;13.90;99.90
15450;DHT22;7826;49.784;9.934;2022-11-15T14:40:38;13.90;99.90
15450;DHT22;7826;49.784;9.934;2022-11-15T14:43:07;13.80;99.90
15450;DHT22;7826;49.784;9.934;2022-11-15T14:45:34;13.70;99.90
15450;DHT22;7826;49.784;9.934;2022-11-15T14:48:01;13.70;99.90
15450;DHT22;7826;49.784;9.934;2022-11-15T14:50:27;13.60;99.90
15450;DHT22;7826;49.784;9.934;2022-11-15T14:52:54;13.50;99.90
15450;DHT22;7826;49.784;9.934;2022-11-15T14:55:26;13.50;99.90
15450;DHT22;7826;49.784;9.934;2022-11-15T14:57:58;13.40;99.90
15450;DHT22;7826;49.784;9.934;2022-11-15T15:00:25;13.40;99.90
15450;DHT22;7826;49.784;9.934;2022-11-15T15:02:53;13.30;99.90
15450;DHT22;7826;49.784;9.934;2022-11-15T15:05:31;13.30;99.90
15450;DHT22;7826;49.784;9.934;2022-11-15T15:07:57;13.30;99.90
15450;DHT22;7826;49.784;9.934;2022-11-15T15:10:25;13.30;99.90
15450;DHT22;7826;49.784;9.934;2022-11-15T15:12:53;13.20;99.90
15450;DHT22;7826;49.784;9.934;2022-11-15T15:15:31;13.20;99.90
15450;DHT22;7826;49.784;9.934;2022-11-15T15:17:57;13.10;99.90
15450;DHT22;7826;49.784;9.934;2022-11-15T15:20:24;13.10;99.90
15450;DHT22;7826;49.784;9.934;2022-11-15T15:22:50;13.10;99.90
15450;DHT22;7826;49.784;9.934;2022-11-15T15:25:28;13.00;99.90
15450;DHT22;7826;49.784;9.934;2022-11-15T15:27:56;12.90;99.90
15450;DHT22;7826;49.784;9.934;2022-11-15T15:30:23;12.90;99.90
15450;DHT22;7826;49.784;9.934;2022-11-15T15:32:50;12.80;99.90
15450;DHT22;7826;49.784;9.934;2022-11-15T15:35:18;12.80;99.90
15450;DHT22;7826;49.784;9.934;2022-11-15T15:37:45;12.70;99.90
15450;DHT22;7826;49.784;9.934;2022-11-15T15:40:21;12.70;99.90
15450;DHT22;7826;49.784;9.934;2022-11-15T15:42:48;12.60;99.90
15450;DHT22;7826;49.784;9.934;2022-11-15T15:45:16;12.60;99.90
15450;DHT22;7826;49.784;9.934;2022-11-15T15:47:43;12.60;99.90
15450;DHT22;7826;49.784;9.934;2022-11-15T15:50:33;12.50;99.90
15450;DHT22;7826;49.784;9.934;2022-11-15T15:53:02;12.50;99.90
15450;DHT22;7826;49.784;9.934;2022-11-15T15:55:29;12.50;99.90
15450;DHT22;7826;49.784;9.934;2022-11-15T15:57:56;12.50;99.90
15450;DHT22;7826;49.784;9.934;2022-11-15T16:00:23;12.40;99.90
15450;DHT22;7826;49.784;9.934;2022-11-15T16:02:51;12.40;99.90
15450;DHT22;7826;49.784;9.934;2022-11-15T16:05:18;12.40;99.90
15450;DHT22;7826;49.784;9.934;2022-11-15T16:07:45;12.40;99.90
15450;DHT22;7826;49.784;9.934;2022-11-15T16:12:51;12.30;99.90
15450;DHT22;7826;49.784;9.934;2022-11-15T16:15:18;12.20;99.90
15450;DHT22;7826;49.784;9.934;2022-11-15T16:17:59;12.20;99.90
15450;DHT22;7826;49.784;9.934;2022-11-15T16:20:40;12.20;99.90
15450;DHT22;7826;49.784;9.934;2022-11-15T16:23:11;12.20;99.90
15450;DHT22;7826;49.784;9.934;2022-11-15T16:25:51;12.20;99.90
15450;DHT22;7826;49.784;9.934;2022-11-15T16:30:45;12.10;99.90
15450;DHT22;7826;49.784;9.934;2022-11-15T16:33:11;12.10;99.90
15450;DHT22;7826;49.784;9.934;2022-11-15T16:35:38;12.10;99.90
15450;DHT22;7826;49.784;9.934;2022-11-15T16:38:04;12.00;99.90
15450;DHT22;7826;49.784;9.934;2022-11-15T16:40:32;12.00;99.90
15450;DHT22;7826;49.784;9.934;2022-11-15T16:42:59;12.00;99.90
15450;DHT22;7826;49.784;9.934;2022-11-15T16:45:28;11.90;99.90
15450;DHT22;7826;49.784;9.934;2022-11-15T16:47:55;11.90;99.90
15450;DHT22;7826;49.784;9.934;2022-11-15T16:50:24;11.90;99.90
15450;DHT22;7826;49.784;9.934;2022-11-15T16:52:53;11.90;99.90
15450;DHT22;7826;49.784;9.934;2022-11-15T16:55:21;11.80;99.90
15450;DHT22;7826;49.784;9.934;2022-11-15T16:57:48;11.80;1.00
15450;DHT22;7826;49.784;9.934;2022-11-15T17:00:16;11.80;1.00
15450;DHT22;7826;49.784;9.934;2022-11-15T17:02:44;11.70;1.00
15450;DHT22;7826;49.784;9.934;2022-11-15T17:05:11;11.70;1.00
15450;DHT22;7826;49.784;9.934;2022-11-15T17:07:38;11.70;1.00
15450;DHT22;7826;49.784;9.934;2022-11-15T17:10:05;11.70;1.00
15450;DHT22;7826;49.784;9.934;2022-11-15T17:12:34;11.70;1.00
15450;DHT22;7826;49.784;9.934;2022-11-15T17:15:00;11.60;1.00
15450;DHT22;7826;49.784;9.934;2022-11-15T17:17:27;11.60;1.00
15450;DHT22;7826;49.784;9.934;2022-11-15T17:19:53;11.60;1.00
15450;DHT22;7826;49.784;9.934;2022-11-15T17:22:20;11.60;1.00
15450;DHT22;7826;49.784;9.934;2022-11-15T17:24:46;11.60;1.00
15450;DHT22;7826;49.784;9.934;2022-11-15T17:27:12;11.50;1.00
15450;DHT22;7826;49.784;9.934;2022-11-15T17:29:40;11.50;1.00
15450;DHT22;7826;49.784;9.934;2022-11-15T17:32:07;11.50;1.00
15450;DHT22;7826;49.784;9.934;2022-11-15T17:34:34;11.50;1.00
15450;DHT22;7826;49.784;9.934;2022-11-15T17:37:00;11.50;1.00
15450;DHT22;7826;49.784;9.934;2022-11-15T17:39:26;11.50;1.00
15450;DHT22;7826;49.784;9.934;2022-11-15T17:41:53;11.40;1.00
15450;DHT22;7826;49.784;9.934;2022-11-15T17:44:20;11.40;29.10
15450;DHT22;7826;49.784;9.934;2022-11-15T17:46:46;11.40;99.90
15450;DHT22;7826;49.784;9.934;2022-11-15T17:49:12;11.30;99.90
15450;DHT22;7826;49.784;9.934;2022-11-15T17:51:39;11.30;99.90
15450;DHT22;7826;49.784;9.934;2022-11-15T17:54:05;11.30;99.90
15450;DHT22;7826;49.784;9.934;2022-11-15T17:56:31;11.30;99.90
15450;DHT22;7826;49.784;9.934;2022-11-15T17:58:59;11.20;99.90
15450;DHT22;7826;49.784;9.934;2022-11-15T18:01:31;11.20;99.90
15450;DHT22;7826;49.784;9.934;2022-11-15T18:03:59;11.20;99.90
15450;DHT22;7826;49.784;9.934;2022-11-15T18:06:29;11.20;99.90
15450;DHT22;7826;49.784;9.934;2022-11-15T18:08:56;11.10;1.00
15450;DHT22;7826;49.784;9.934;2022-11-15T18:11:30;11.10;1.00
15450;DHT22;7826;49.784;9.934;2022-11-15T18:14:00;11.10;1.00
15450;DHT22;7826;49.784;9.934;2022-11-15T18:16:28;11.00;1.00
15450;DHT22;7826;49.784;9.934;2022-11-15T18:18:56;11.00;1.00
15450;DHT22;7826;49.784;9.934;2022-11-15T18:21:26;11.00;15.40
15450;DHT22;7826;49.784;9.934;2022-11-15T18:23:55;10.90;99.90
15450;DHT22;7826;49.784;9.934;2022-11-15T18:26:23;10.90;99.90
15450;DHT22;7826;49.784;9.934;2022-11-15T18:28:54;10.90;99.90
15450;DHT22;7826;49.784;9.934;2022-11-15T18:31:23;10.80;1.00
15450;DHT22;7826;49.784;9.934;2022-11-15T18:33:50;10.80;99.90
15450;DHT22;7826;49.784;9.934;2022-11-15T18:36:22;10.80;1.00